sensor_id;sensor_type;location;lat;lon;timestamp;P1;durP1;ratioP1;P2;durP2;ratioP2
30307;SDS011;17114;52.314;8.910;2023-07-20T00:01:07;3.70;;;1.83;;
30307;SDS011;17114;52.314;8.910;2023-07-20T00:03:34;2.85;;;1.60;;
30307;SDS011;17114;52.314;8.910;2023-07-20T00:06:01;2.35;;;1.80;;
30307;SDS011;17114;52.314;8.910;2023-07-20T00:08:28;2.90;;;1.70;;
30307;SDS011;17114;52.314;8.910;2023-07-20T00:10:55;3.35;;;1.90;;
30307;SDS011;17114;52.314;8.910;2023-07-20T00:13:22;4.00;;;1.80;;
30307;SDS011;17114;52.314;8.910;2023-07-20T00:15:49;5.85;;;2.10;;
30307;SDS011;17114;52.314;8.910;2023-07-20T00:18:17;3.25;;;1.50;;
30307;SDS011;17114;52.314;8.910;2023-07-20T00:20:47;3.05;;;1.63;;
30307;SDS011;17114;52.314;8.910;2023-07-20T00:23:14;1.95;;;1.60;;
30307;SDS011;17114;52.314;8.910;2023-07-20T00:25:41;3.28;;;1.80;;
30307;SDS011;17114;52.314;8.910;2023-07-20T00:28:08;3.90;;;2.30;;
30307;SDS011;17114;52.314;8.910;2023-07-20T00:30:35;3.10;;;1.77;;
30307;SDS011;17114;52.314;8.910;2023-07-20T00:33:04;4.75;;;2.20;;
30307;SDS011;17114;52.314;8.910;2023-07-20T00:35:31;3.80;;;2.10;;
30307;SDS011;17114;52.314;8.910;2023-07-20T00:37:58;3.78;;;1.90;;
30307;SDS011;17114;52.314;8.910;2023-07-20T00:40:25;3.58;;;1.98;;
30307;SDS011;17114;52.314;8.910;2023-07-20T00:42:52;6.13;;;2.38;;
30307;SDS011;17114;52.314;8.910;2023-07-20T00:45:19;5.28;;;2.40;;
30307;SDS011;17114;52.314;8.910;2023-07-20T00:47:46;2.60;;;2.40;;
30307;SDS011;17114;52.314;8.910;2023-07-20T00:50:13;7.00;;;2.33;;
30307;SDS011;17114;52.314;8.910;2023-07-20T00:52:39;4.63;;;2.45;;
30307;SDS011;17114;52.314;8.910;2023-07-20T00:55:07;3.00;;;2.40;;
30307;SDS011;17114;52.314;8.910;2023-07-20T00:57:35;3.42;;;2.38;;
30307;SDS011;17114;52.314;8.910;2023-07-20T01:00:02;4.18;;;2.30;;
30307;SDS011;17114;52.314;8.910;2023-07-20T01:02:30;7.32;;;2.38;;
30307;SDS011;17114;52.314;8.910;2023-07-20T01:04:57;6.10;;;2.67;;
30307;SDS011;17114;52.314;8.910;2023-07-20T01:07:25;5.35;;;2.47;;
30307;SDS011;17114;52.314;8.910;2023-07-20T01:12:42;3.47;;;2.30;;
30307;SDS011;17114;52.314;8.910;2023-07-20T01:15:10;8.07;;;2.90;;
30307;SDS011;17114;52.314;8.910;2023-07-20T01:17:37;6.90;;;2.97;;
30307;SDS011;17114;52.314;8.910;2023-07-20T01:20:04;4.15;;;2.50;;
30307;SDS011;17114;52.314;8.910;2023-07-20T01:33:35;6.50;;;2.72;;
30307;SDS011;17114;52.314;8.910;2023-07-20T01:36:02;4.35;;;2.50;;
30307;SDS011;17114;52.314;8.910;2023-07-20T01:38:31;5.13;;;2.58;;
30307;SDS011;17114;52.314;8.910;2023-07-20T01:40:58;2.78;;;2.15;;
30307;SDS011;17114;52.314;8.910;2023-07-20T01:43:25;3.20;;;2.10;;
30307;SDS011;17114;52.314;8.910;2023-07-20T01:45:52;4.22;;;2.42;;
30307;SDS011;17114;52.314;8.910;2023-07-20T01:48:19;5.53;;;2.65;;
30307;SDS011;17114;52.314;8.910;2023-07-20T01:50:46;7.28;;;3.15;;
30307;SDS011;17114;52.314;8.910;2023-07-20T01:53:13;4.80;;;3.13;;
30307;SDS011;17114;52.314;8.910;2023-07-20T01:55:40;6.80;;;2.88;;
30307;SDS011;17114;52.314;8.910;2023-07-20T01:58:07;5.47;;;3.05;;
30307;SDS011;17114;52.314;8.910;2023-07-20T02:00:34;6.05;;;2.80;;
30307;SDS011;17114;52.314;8.910;2023-07-20T02:03:02;5.95;;;3.00;;
30307;SDS011;17114;52.314;8.910;2023-07-20T02:05:29;3.83;;;3.10;;
30307;SDS011;17114;52.314;8.910;2023-07-20T02:07:56;5.47;;;3.30;;
30307;SDS011;17114;52.314;8.910;2023-07-20T02:10:23;4.75;;;2.75;;
30307;SDS011;17114;52.314;8.910;2023-07-20T02:12:50;6.10;;;3.10;;
30307;SDS011;17114;52.314;8.910;2023-07-20T02:15:17;5.05;;;3.20;;
30307;SDS011;17114;52.314;8.910;2023-07-20T02:17:45;6.57;;;2.95;;
30307;SDS011;17114;52.314;8.910;2023-07-20T02:20:12;3.63;;;3.10;;
30307;SDS011;17114;52.314;8.910;2023-07-20T02:22:39;11.52;;;3.20;;
30307;SDS011;17114;52.314;8.910;2023-07-20T02:25:06;5.97;;;3.03;;
30307;SDS011;17114;52.314;8.910;2023-07-20T02:27:34;5.20;;;3.50;;
30307;SDS011;17114;52.314;8.910;2023-07-20T02:30:01;4.82;;;3.20;;
30307;SDS011;17114;52.314;8.910;2023-07-20T02:32:29;7.80;;;3.40;;
30307;SDS011;17114;52.314;8.910;2023-07-20T02:34:58;8.48;;;3.60;;
30307;SDS011;17114;52.314;8.910;2023-07-20T02:37:25;4.50;;;3.20;;
30307;SDS011;17114;52.314;8.910;2023-07-20T02:39:52;5.32;;;3.55;;
30307;SDS011;17114;52.314;8.910;2023-07-20T02:42:19;5.20;;;3.13;;
30307;SDS011;17114;52.314;8.910;2023-07-20T02:44:45;7.70;;;3.88;;
30307;SDS011;17114;52.314;8.910;2023-07-20T02:47:12;7.05;;;4.05;;
30307;SDS011;17114;52.314;8.910;2023-07-20T02:49:39;9.68;;;4.10;;
30307;SDS011;17114;52.314;8.910;2023-07-20T02:52:06;6.18;;;3.92;;
30307;SDS011;17114;52.314;8.910;2023-07-20T02:54:33;12.63;;;4.72;;
30307;SDS011;17114;52.314;8.910;2023-07-20T02:57:00;10.10;;;4.82;;
30307;SDS011;17114;52.314;8.910;2023-07-20T02:59:27;10.88;;;4.63;;
30307;SDS011;17114;52.314;8.910;2023-07-20T03:01:55;9.18;;;4.97;;
30307;SDS011;17114;52.314;8.910;2023-07-20T03:04:25;9.30;;;4.90;;
30307;SDS011;17114;52.314;8.910;2023-07-20T03:06:53;12.48;;;6.03;;
30307;SDS011;17114;52.314;8.910;2023-07-20T03:09:20;10.18;;;5.82;;
30307;SDS011;17114;52.314;8.910;2023-07-20T03:11:49;9.68;;;5.50;;
30307;SDS011;17114;52.314;8.910;2023-07-20T03:14:17;13.55;;;5.75;;
30307;SDS011;17114;52.314;8.910;2023-07-20T03:16:47;13.05;;;6.65;;
30307;SDS011;17114;52.314;8.910;2023-07-20T03:19:14;8.50;;;5.90;;
30307;SDS011;17114;52.314;8.910;2023-07-20T03:21:41;11.82;;;6.28;;
30307;SDS011;17114;52.314;8.910;2023-07-20T03:24:08;13.52;;;6.15;;
30307;SDS011;17114;52.314;8.910;2023-07-20T03:26:35;7.82;;;6.03;;
30307;SDS011;17114;52.314;8.910;2023-07-20T03:29:03;10.13;;;6.40;;
30307;SDS011;17114;52.314;8.910;2023-07-20T03:31:31;8.73;;;5.30;;
30307;SDS011;17114;52.314;8.910;2023-07-20T03:33:57;9.00;;;5.95;;
30307;SDS011;17114;52.314;8.910;2023-07-20T03:36:24;8.63;;;5.55;;
30307;SDS011;17114;52.314;8.910;2023-07-20T03:38:51;8.68;;;5.82;;
30307;SDS011;17114;52.314;8.910;2023-07-20T03:41:18;8.50;;;5.78;;
30307;SDS011;17114;52.314;8.910;2023-07-20T03:43:46;9.00;;;4.88;;
30307;SDS011;17114;52.314;8.910;2023-07-20T03:46:13;10.80;;;5.47;;
30307;SDS011;17114;52.314;8.910;2023-07-20T03:48:40;8.43;;;4.88;;
30307;SDS011;17114;52.314;8.910;2023-07-20T03:51:06;7.00;;;5.00;;
30307;SDS011;17114;52.314;8.910;2023-07-20T03:53:33;6.28;;;4.90;;
30307;SDS011;17114;52.314;8.910;2023-07-20T03:56:00;7.18;;;5.28;;
30307;SDS011;17114;52.314;8.910;2023-07-20T03:58:27;5.40;;;4.85;;
30307;SDS011;17114;52.314;8.910;2023-07-20T04:00:56;7.88;;;5.35;;
30307;SDS011;17114;52.314;8.910;2023-07-20T04:03:24;6.55;;;5.63;;
30307;SDS011;17114;52.314;8.910;2023-07-20T04:05:53;8.82;;;5.95;;
30307;SDS011;17114;52.314;8.910;2023-07-20T04:08:24;9.50;;;6.60;;
30307;SDS011;17114;52.314;8.910;2023-07-20T04:10:51;6.90;;;6.20;;
30307;SDS011;17114;52.314;8.910;2023-07-20T04:13:18;11.07;;;7.53;;
30307;SDS011;17114;52.314;8.910;2023-07-20T04:15:45;9.20;;;6.53;;
30307;SDS011;17114;52.314;8.910;2023-07-20T04:18:11;11.50;;;8.13;;
30307;SDS011;17114;52.314;8.910;2023-07-20T04:20:39;10.30;;;7.38;;
30307;SDS011;17114;52.314;8.910;2023-07-20T04:23:06;10.45;;;7.95;;
30307;SDS011;17114;52.314;8.910;2023-07-20T04:25:32;10.32;;;8.63;;
30307;SDS011;17114;52.314;8.910;2023-07-20T04:28:09;9.88;;;8.05;;
30307;SDS011;17114;52.314;8.910;2023-07-20T04:30:37;10.27;;;9.18;;
30307;SDS011;17114;52.314;8.910;2023-07-20T04:33:05;11.23;;;9.32;;
30307;SDS011;17114;52.314;8.910;2023-07-20T04:38:11;13.07;;;9.93;;
30307;SDS011;17114;52.314;8.910;2023-07-20T04:40:38;13.63;;;10.18;;
30307;SDS011;17114;52.314;8.910;2023-07-20T04:43:05;11.60;;;9.18;;
30307;SDS011;17114;52.314;8.910;2023-07-20T04:45:32;10.95;;;9.77;;
30307;SDS011;17114;52.314;8.910;2023-07-20T04:47:58;13.65;;;10.50;;
30307;SDS011;17114;52.314;8.910;2023-07-20T04:50:25;10.70;;;9.52;;
30307;SDS011;17114;52.314;8.910;2023-07-20T04:52:52;11.35;;;10.15;;
30307;SDS011;17114;52.314;8.910;2023-07-20T04:55:19;13.40;;;10.70;;
30307;SDS011;17114;52.314;8.910;2023-07-20T04:57:46;11.77;;;9.70;;
30307;SDS011;17114;52.314;8.910;2023-07-20T05:00:13;11.00;;;9.80;;
30307;SDS011;17114;52.314;8.910;2023-07-20T05:02:40;13.52;;;9.88;;
30307;SDS011;17114;52.314;8.910;2023-07-20T05:05:07;14.65;;;9.52;;
30307;SDS011;17114;52.314;8.910;2023-07-20T05:07:35;11.88;;;9.35;;
30307;SDS011;17114;52.314;8.910;2023-07-20T05:10:02;10.68;;;9.02;;
30307;SDS011;17114;52.314;8.910;2023-07-20T05:12:29;12.18;;;9.77;;
30307;SDS011;17114;52.314;8.910;2023-07-20T05:14:55;14.30;;;10.38;;
30307;SDS011;17114;52.314;8.910;2023-07-20T05:17:22;13.77;;;10.48;;
30307;SDS011;17114;52.314;8.910;2023-07-20T05:19:51;11.73;;;9.90;;
30307;SDS011;17114;52.314;8.910;2023-07-20T05:22:17;11.13;;;9.23;;
30307;SDS011;17114;52.314;8.910;2023-07-20T05:24:44;11.30;;;9.90;;
30307;SDS011;17114;52.314;8.910;2023-07-20T05:27:11;11.05;;;8.80;;
30307;SDS011;17114;52.314;8.910;2023-07-20T05:29:43;10.82;;;9.73;;
30307;SDS011;17114;52.314;8.910;2023-07-20T05:32:12;11.05;;;9.27;;
30307;SDS011;17114;52.314;8.910;2023-07-20T05:34:39;11.82;;;9.63;;
30307;SDS011;17114;52.314;8.910;2023-07-20T05:37:06;10.77;;;9.13;;
30307;SDS011;17114;52.314;8.910;2023-07-20T05:39:33;10.52;;;8.20;;
30307;SDS011;17114;52.314;8.910;2023-07-20T05:42:00;12.32;;;8.90;;
30307;SDS011;17114;52.314;8.910;2023-07-20T05:44:27;13.02;;;8.43;;
30307;SDS011;17114;52.314;8.910;2023-07-20T05:46:54;9.85;;;7.25;;
30307;SDS011;17114;52.314;8.910;2023-07-20T05:49:23;9.57;;;7.43;;
30307;SDS011;17114;52.314;8.910;2023-07-20T05:51:50;8.63;;;7.65;;
30307;SDS011;17114;52.314;8.910;2023-07-20T05:54:17;10.00;;;7.30;;
30307;SDS011;17114;52.314;8.910;2023-07-20T05:56:45;10.10;;;7.20;;
30307;SDS011;17114;52.314;8.910;2023-07-20T05:59:15;9.93;;;7.35;;
30307;SDS011;17114;52.314;8.910;2023-07-20T06:01:43;7.75;;;6.80;;
30307;SDS011;17114;52.314;8.910;2023-07-20T06:04:10;8.45;;;7.45;;
30307;SDS011;17114;52.314;8.910;2023-07-20T06:06:37;7.78;;;6.45;;
30307;SDS011;17114;52.314;8.910;2023-07-20T06:09:03;9.52;;;7.82;;
30307;SDS011;17114;52.314;8.910;2023-07-20T06:11:31;10.55;;;8.20;;
30307;SDS011;17114;52.314;8.910;2023-07-20T06:13:58;7.80;;;7.00;;
30307;SDS011;17114;52.314;8.910;2023-07-20T06:16:25;7.57;;;6.18;;
30307;SDS011;17114;52.314;8.910;2023-07-20T06:18:52;6.40;;;5.57;;
30307;SDS011;17114;52.314;8.910;2023-07-20T06:21:19;7.82;;;5.10;;
30307;SDS011;17114;52.314;8.910;2023-07-20T06:23:46;5.82;;;4.38;;
30307;SDS011;17114;52.314;8.910;2023-07-20T06:26:13;5.43;;;4.13;;
30307;SDS011;17114;52.314;8.910;2023-07-20T06:28:40;4.90;;;4.40;;
30307;SDS011;17114;52.314;8.910;2023-07-20T06:31:07;5.07;;;3.95;;
30307;SDS011;17114;52.314;8.910;2023-07-20T06:33:34;4.50;;;3.90;;
30307;SDS011;17114;52.314;8.910;2023-07-20T06:36:01;7.55;;;4.55;;
30307;SDS011;17114;52.314;8.910;2023-07-20T06:38:27;6.65;;;4.18;;
30307;SDS011;17114;52.314;8.910;2023-07-20T06:40:57;8.23;;;4.38;;
30307;SDS011;17114;52.314;8.910;2023-07-20T06:43:44;5.43;;;3.35;;
30307;SDS011;17114;52.314;8.910;2023-07-20T06:46:15;4.75;;;3.58;;
30307;SDS011;17114;52.314;8.910;2023-07-20T06:48:41;3.85;;;3.47;;
30307;SDS011;17114;52.314;8.910;2023-07-20T06:51:11;5.25;;;3.42;;
30307;SDS011;17114;52.314;8.910;2023-07-20T06:53:38;5.65;;;3.60;;
30307;SDS011;17114;52.314;8.910;2023-07-20T06:56:05;3.35;;;3.03;;
30307;SDS011;17114;52.314;8.910;2023-07-20T06:58:32;5.30;;;3.47;;
30307;SDS011;17114;52.314;8.910;2023-07-20T07:00:59;3.35;;;2.00;;
30307;SDS011;17114;52.314;8.910;2023-07-20T07:03:30;2.83;;;1.80;;
30307;SDS011;17114;52.314;8.910;2023-07-20T07:06:02;4.50;;;1.85;;
30307;SDS011;17114;52.314;8.910;2023-07-20T07:08:30;5.35;;;1.98;;
30307;SDS011;17114;52.314;8.910;2023-07-20T07:10:56;4.63;;;1.52;;
30307;SDS011;17114;52.314;8.910;2023-07-20T07:13:23;2.80;;;1.20;;
30307;SDS011;17114;52.314;8.910;2023-07-20T07:15:51;4.80;;;1.60;;
30307;SDS011;17114;52.314;8.910;2023-07-20T07:18:18;3.42;;;1.20;;
30307;SDS011;17114;52.314;8.910;2023-07-20T07:20:50;2.53;;;1.20;;
30307;SDS011;17114;52.314;8.910;2023-07-20T07:23:18;2.80;;;1.30;;
30307;SDS011;17114;52.314;8.910;2023-07-20T07:25:46;4.47;;;1.30;;
30307;SDS011;17114;52.314;8.910;2023-07-20T07:28:13;5.13;;;1.25;;
30307;SDS011;17114;52.314;8.910;2023-07-20T07:30:40;3.80;;;1.40;;
30307;SDS011;17114;52.314;8.910;2023-07-20T07:33:07;4.07;;;1.40;;
30307;SDS011;17114;52.314;8.910;2023-07-20T07:35:34;3.65;;;1.00;;
30307;SDS011;17114;52.314;8.910;2023-07-20T07:38:02;2.05;;;1.15;;
30307;SDS011;17114;52.314;8.910;2023-07-20T07:40:49;3.60;;;1.40;;
30307;SDS011;17114;52.314;8.910;2023-07-20T07:43:15;4.97;;;1.35;;
30307;SDS011;17114;52.314;8.910;2023-07-20T07:45:42;2.58;;;1.20;;
30307;SDS011;17114;52.314;8.910;2023-07-20T07:48:09;4.50;;;1.60;;
30307;SDS011;17114;52.314;8.910;2023-07-20T07:50:40;2.92;;;1.10;;
30307;SDS011;17114;52.314;8.910;2023-07-20T07:53:08;2.67;;;1.17;;
30307;SDS011;17114;52.314;8.910;2023-07-20T07:55:35;1.65;;;0.93;;
30307;SDS011;17114;52.314;8.910;2023-07-20T07:58:02;1.70;;;0.95;;
30307;SDS011;17114;52.314;8.910;2023-07-20T08:00:29;2.58;;;1.00;;
30307;SDS011;17114;52.314;8.910;2023-07-20T08:02:56;3.40;;;1.10;;
30307;SDS011;17114;52.314;8.910;2023-07-20T08:05:24;1.60;;;0.98;;
30307;SDS011;17114;52.314;8.910;2023-07-20T08:07:51;1.73;;;1.05;;
30307;SDS011;17114;52.314;8.910;2023-07-20T08:10:18;2.30;;;1.27;;
30307;SDS011;17114;52.314;8.910;2023-07-20T08:12:45;1.35;;;0.85;;
30307;SDS011;17114;52.314;8.910;2023-07-20T08:15:12;3.28;;;1.08;;
30307;SDS011;17114;52.314;8.910;2023-07-20T08:17:41;2.35;;;1.35;;
30307;SDS011;17114;52.314;8.910;2023-07-20T08:20:10;2.55;;;1.23;;
30307;SDS011;17114;52.314;8.910;2023-07-20T08:22:39;2.45;;;1.10;;
30307;SDS011;17114;52.314;8.910;2023-07-20T08:25:06;1.58;;;0.90;;
30307;SDS011;17114;52.314;8.910;2023-07-20T08:27:34;2.22;;;0.82;;
30307;SDS011;17114;52.314;8.910;2023-07-20T08:30:01;5.13;;;1.13;;
30307;SDS011;17114;52.314;8.910;2023-07-20T08:32:28;1.50;;;0.90;;
30307;SDS011;17114;52.314;8.910;2023-07-20T08:34:55;1.73;;;0.90;;
30307;SDS011;17114;52.314;8.910;2023-07-20T08:37:22;3.10;;;0.70;;
30307;SDS011;17114;52.314;8.910;2023-07-20T08:39:49;0.88;;;0.60;;
30307;SDS011;17114;52.314;8.910;2023-07-20T08:42:15;1.15;;;0.60;;
30307;SDS011;17114;52.314;8.910;2023-07-20T08:44:43;2.95;;;0.88;;
30307;SDS011;17114;52.314;8.910;2023-07-20T08:47:13;1.08;;;0.68;;
30307;SDS011;17114;52.314;8.910;2023-07-20T08:49:41;1.45;;;0.90;;
30307;SDS011;17114;52.314;8.910;2023-07-20T08:52:08;3.45;;;0.82;;
30307;SDS011;17114;52.314;8.910;2023-07-20T08:54:37;1.52;;;0.60;;
30307;SDS011;17114;52.314;8.910;2023-07-20T08:57:05;0.60;;;0.60;;
30307;SDS011;17114;52.314;8.910;2023-07-20T08:59:32;3.45;;;0.75;;
30307;SDS011;17114;52.314;8.910;2023-07-20T09:02:02;2.25;;;0.73;;
30307;SDS011;17114;52.314;8.910;2023-07-20T09:04:31;1.48;;;0.68;;
30307;SDS011;17114;52.314;8.910;2023-07-20T09:06:58;1.70;;;0.80;;
30307;SDS011;17114;52.314;8.910;2023-07-20T09:09:25;1.33;;;0.90;;
30307;SDS011;17114;52.314;8.910;2023-07-20T09:11:52;1.17;;;0.68;;
30307;SDS011;17114;52.314;8.910;2023-07-20T09:14:19;0.80;;;0.80;;
30307;SDS011;17114;52.314;8.910;2023-07-20T09:16:52;3.22;;;0.60;;
30307;SDS011;17114;52.314;8.910;2023-07-20T09:19:21;2.38;;;0.68;;
30307;SDS011;17114;52.314;8.910;2023-07-20T09:21:48;1.67;;;0.60;;
30307;SDS011;17114;52.314;8.910;2023-07-20T09:24:19;2.53;;;0.70;;
30307;SDS011;17114;52.314;8.910;2023-07-20T09:26:47;1.60;;;0.70;;
30307;SDS011;17114;52.314;8.910;2023-07-20T09:29:17;1.77;;;0.50;;
30307;SDS011;17114;52.314;8.910;2023-07-20T09:34:47;2.10;;;0.65;;
30307;SDS011;17114;52.314;8.910;2023-07-20T09:37:21;0.80;;;0.68;;
30307;SDS011;17114;52.314;8.910;2023-07-20T09:39:52;1.75;;;0.60;;
30307;SDS011;17114;52.314;8.910;2023-07-20T09:42:22;1.58;;;0.60;;
30307;SDS011;17114;52.314;8.910;2023-07-20T09:44:54;0.85;;;0.73;;
30307;SDS011;17114;52.314;8.910;2023-07-20T09:47:23;1.02;;;0.60;;
30307;SDS011;17114;52.314;8.910;2023-07-20T09:49:58;0.85;;;0.52;;
30307;SDS011;17114;52.314;8.910;2023-07-20T09:52:31;1.27;;;0.57;;
30307;SDS011;17114;52.314;8.910;2023-07-20T09:55:01;2.65;;;0.60;;
30307;SDS011;17114;52.314;8.910;2023-07-20T09:57:29;1.77;;;0.65;;
30307;SDS011;17114;52.314;8.910;2023-07-20T09:59:58;1.38;;;0.75;;
30307;SDS011;17114;52.314;8.910;2023-07-20T10:02:32;2.15;;;0.80;;
30307;SDS011;17114;52.314;8.910;2023-07-20T10:05:02;0.68;;;0.50;;
30307;SDS011;17114;52.314;8.910;2023-07-20T10:07:33;0.75;;;0.50;;
30307;SDS011;17114;52.314;8.910;2023-07-20T10:10:06;2.03;;;0.57;;
30307;SDS011;17114;52.314;8.910;2023-07-20T10:12:37;2.03;;;0.70;;
30307;SDS011;17114;52.314;8.910;2023-07-20T10:15:15;1.13;;;0.70;;
30307;SDS011;17114;52.314;8.910;2023-07-20T10:20:23;1.55;;;0.70;;
30307;SDS011;17114;52.314;8.910;2023-07-20T10:22:52;2.75;;;1.20;;
30307;SDS011;17114;52.314;8.910;2023-07-20T10:25:23;1.80;;;0.65;;
30307;SDS011;17114;52.314;8.910;2023-07-20T10:27:50;1.13;;;0.60;;
30307;SDS011;17114;52.314;8.910;2023-07-20T10:30:17;0.50;;;0.50;;
30307;SDS011;17114;52.314;8.910;2023-07-20T10:32:45;3.95;;;0.77;;
30307;SDS011;17114;52.314;8.910;2023-07-20T10:35:18;1.10;;;0.70;;
30307;SDS011;17114;52.314;8.910;2023-07-20T10:37:46;1.33;;;0.70;;
30307;SDS011;17114;52.314;8.910;2023-07-20T10:40:23;1.38;;;0.50;;
30307;SDS011;17114;52.314;8.910;2023-07-20T10:43:00;1.10;;;0.60;;
30307;SDS011;17114;52.314;8.910;2023-07-20T10:45:33;1.95;;;0.75;;
30307;SDS011;17114;52.314;8.910;2023-07-20T10:48:05;2.00;;;0.95;;
30307;SDS011;17114;52.314;8.910;2023-07-20T10:50:33;1.02;;;0.52;;
30307;SDS011;17114;52.314;8.910;2023-07-20T10:53:04;3.70;;;0.55;;
30307;SDS011;17114;52.314;8.910;2023-07-20T10:55:36;1.30;;;0.65;;
30307;SDS011;17114;52.314;8.910;2023-07-20T10:58:06;2.17;;;0.80;;
30307;SDS011;17114;52.314;8.910;2023-07-20T11:00:35;2.13;;;0.77;;
30307;SDS011;17114;52.314;8.910;2023-07-20T11:03:02;8.32;;;4.97;;
30307;SDS011;17114;52.314;8.910;2023-07-20T11:05:39;9.45;;;4.78;;
30307;SDS011;17114;52.314;8.910;2023-07-20T11:08:10;27.38;;;13.88;;
30307;SDS011;17114;52.314;8.910;2023-07-20T11:10:38;30.55;;;16.92;;
30307;SDS011;17114;52.314;8.910;2023-07-20T11:13:19;3.30;;;2.10;;
30307;SDS011;17114;52.314;8.910;2023-07-20T11:18:25;7.55;;;3.20;;
30307;SDS011;17114;52.314;8.910;2023-07-20T11:20:53;2.88;;;1.30;;
30307;SDS011;17114;52.314;8.910;2023-07-20T11:23:20;26.58;;;15.68;;
30307;SDS011;17114;52.314;8.910;2023-07-20T11:25:48;17.67;;;10.75;;
30307;SDS011;17114;52.314;8.910;2023-07-20T11:28:15;5.20;;;1.80;;
30307;SDS011;17114;52.314;8.910;2023-07-20T11:30:42;16.88;;;7.97;;
30307;SDS011;17114;52.314;8.910;2023-07-20T11:33:09;2.33;;;0.77;;
30307;SDS011;17114;52.314;8.910;2023-07-20T11:35:41;1.80;;;0.70;;
30307;SDS011;17114;52.314;8.910;2023-07-20T11:38:11;1.48;;;0.80;;
30307;SDS011;17114;52.314;8.910;2023-07-20T11:40:42;2.67;;;0.88;;
30307;SDS011;17114;52.314;8.910;2023-07-20T11:43:11;3.50;;;0.80;;
30307;SDS011;17114;52.314;8.910;2023-07-20T11:45:44;1.35;;;0.60;;
30307;SDS011;17114;52.314;8.910;2023-07-20T11:48:15;1.58;;;0.73;;
30307;SDS011;17114;52.314;8.910;2023-07-20T11:50:42;2.90;;;0.90;;
30307;SDS011;17114;52.314;8.910;2023-07-20T11:53:09;0.70;;;0.68;;
30307;SDS011;17114;52.314;8.910;2023-07-20T11:55:38;0.80;;;0.60;;
30307;SDS011;17114;52.314;8.910;2023-07-20T11:58:07;1.50;;;0.57;;
30307;SDS011;17114;52.314;8.910;2023-07-20T12:00:37;1.65;;;0.80;;
30307;SDS011;17114;52.314;8.910;2023-07-20T12:03:06;2.15;;;0.73;;
30307;SDS011;17114;52.314;8.910;2023-07-20T12:05:34;1.40;;;0.57;;
30307;SDS011;17114;52.314;8.910;2023-07-20T12:08:21;2.92;;;0.60;;
30307;SDS011;17114;52.314;8.910;2023-07-20T12:10:48;1.05;;;0.80;;
30307;SDS011;17114;52.314;8.910;2023-07-20T12:13:16;2.17;;;0.60;;
30307;SDS011;17114;52.314;8.910;2023-07-20T12:15:43;1.10;;;0.45;;
30307;SDS011;17114;52.314;8.910;2023-07-20T12:18:10;1.67;;;0.70;;
30307;SDS011;17114;52.314;8.910;2023-07-20T12:20:37;0.82;;;0.52;;
30307;SDS011;17114;52.314;8.910;2023-07-20T12:23:08;1.38;;;0.60;;
30307;SDS011;17114;52.314;8.910;2023-07-20T12:25:41;1.63;;;0.75;;
30307;SDS011;17114;52.314;8.910;2023-07-20T12:28:08;0.95;;;0.60;;
30307;SDS011;17114;52.314;8.910;2023-07-20T12:30:46;3.45;;;0.75;;
30307;SDS011;17114;52.314;8.910;2023-07-20T12:33:22;3.55;;;0.70;;
30307;SDS011;17114;52.314;8.910;2023-07-20T12:35:49;0.88;;;0.50;;
30307;SDS011;17114;52.314;8.910;2023-07-20T12:38:17;2.60;;;0.90;;
30307;SDS011;17114;52.314;8.910;2023-07-20T12:40:44;1.92;;;0.60;;
30307;SDS011;17114;52.314;8.910;2023-07-20T12:43:11;1.45;;;0.70;;
30307;SDS011;17114;52.314;8.910;2023-07-20T12:45:37;3.40;;;0.80;;
30307;SDS011;17114;52.314;8.910;2023-07-20T12:48:04;1.52;;;0.70;;
30307;SDS011;17114;52.314;8.910;2023-07-20T12:50:31;2.25;;;0.73;;
30307;SDS011;17114;52.314;8.910;2023-07-20T12:52:58;4.10;;;1.17;;
30307;SDS011;17114;52.314;8.910;2023-07-20T12:55:25;1.70;;;1.10;;
30307;SDS011;17114;52.314;8.910;2023-07-20T12:57:52;3.17;;;1.08;;
30307;SDS011;17114;52.314;8.910;2023-07-20T13:00:19;3.95;;;0.80;;
30307;SDS011;17114;52.314;8.910;2023-07-20T13:02:46;2.95;;;1.02;;
30307;SDS011;17114;52.314;8.910;2023-07-20T13:05:33;1.20;;;0.82;;
30307;SDS011;17114;52.314;8.910;2023-07-20T13:08:04;3.20;;;1.27;;
30307;SDS011;17114;52.314;8.910;2023-07-20T13:10:35;1.50;;;0.70;;
30307;SDS011;17114;52.314;8.910;2023-07-20T13:13:02;0.98;;;0.60;;
30307;SDS011;17114;52.314;8.910;2023-07-20T13:15:29;1.00;;;0.60;;
30307;SDS011;17114;52.314;8.910;2023-07-20T13:18:00;1.27;;;0.57;;
30307;SDS011;17114;52.314;8.910;2023-07-20T13:20:27;1.40;;;0.50;;
30307;SDS011;17114;52.314;8.910;2023-07-20T13:22:54;2.13;;;0.60;;
30307;SDS011;17114;52.314;8.910;2023-07-20T13:25:21;2.33;;;0.70;;
30307;SDS011;17114;52.314;8.910;2023-07-20T13:27:48;1.60;;;0.65;;
30307;SDS011;17114;52.314;8.910;2023-07-20T13:30:15;1.30;;;0.50;;
30307;SDS011;17114;52.314;8.910;2023-07-20T13:32:43;2.15;;;0.88;;
30307;SDS011;17114;52.314;8.910;2023-07-20T13:35:11;1.75;;;0.60;;
30307;SDS011;17114;52.314;8.910;2023-07-20T13:37:38;2.97;;;0.80;;
30307;SDS011;17114;52.314;8.910;2023-07-20T13:40:05;1.45;;;0.70;;
30307;SDS011;17114;52.314;8.910;2023-07-20T13:42:33;1.95;;;0.82;;
30307;SDS011;17114;52.314;8.910;2023-07-20T13:45:00;3.45;;;1.05;;
30307;SDS011;17114;52.314;8.910;2023-07-20T13:47:27;2.85;;;0.68;;
30307;SDS011;17114;52.314;8.910;2023-07-20T13:49:54;5.07;;;1.33;;
30307;SDS011;17114;52.314;8.910;2023-07-20T13:52:25;1.92;;;0.90;;
30307;SDS011;17114;52.314;8.910;2023-07-20T13:54:54;1.02;;;0.75;;
30307;SDS011;17114;52.314;8.910;2023-07-20T13:57:21;1.17;;;0.98;;
30307;SDS011;17114;52.314;8.910;2023-07-20T13:59:48;3.08;;;0.90;;
30307;SDS011;17114;52.314;8.910;2023-07-20T14:02:17;4.80;;;1.30;;
30307;SDS011;17114;52.314;8.910;2023-07-20T14:04:47;4.72;;;1.05;;
30307;SDS011;17114;52.314;8.910;2023-07-20T14:07:15;1.67;;;0.90;;
30307;SDS011;17114;52.314;8.910;2023-07-20T14:09:45;2.97;;;0.93;;
30307;SDS011;17114;52.314;8.910;2023-07-20T14:12:14;1.13;;;0.70;;
30307;SDS011;17114;52.314;8.910;2023-07-20T14:14:45;2.25;;;0.70;;
30307;SDS011;17114;52.314;8.910;2023-07-20T14:17:12;1.40;;;0.80;;
30307;SDS011;17114;52.314;8.910;2023-07-20T14:19:39;2.45;;;1.10;;
30307;SDS011;17114;52.314;8.910;2023-07-20T14:22:09;2.22;;;1.00;;
30307;SDS011;17114;52.314;8.910;2023-07-20T14:24:38;3.72;;;1.10;;
30307;SDS011;17114;52.314;8.910;2023-07-20T14:27:04;1.95;;;1.20;;
30307;SDS011;17114;52.314;8.910;2023-07-20T14:29:31;1.23;;;1.02;;
30307;SDS011;17114;52.314;8.910;2023-07-20T14:31:58;2.88;;;1.00;;
30307;SDS011;17114;52.314;8.910;2023-07-20T14:34:26;1.17;;;0.80;;
30307;SDS011;17114;52.314;8.910;2023-07-20T14:36:52;2.58;;;0.88;;
30307;SDS011;17114;52.314;8.910;2023-07-20T14:39:20;5.38;;;1.23;;
30307;SDS011;17114;52.314;8.910;2023-07-20T14:41:46;1.88;;;0.85;;
30307;SDS011;17114;52.314;8.910;2023-07-20T14:44:13;3.10;;;0.90;;
30307;SDS011;17114;52.314;8.910;2023-07-20T14:46:40;2.35;;;0.95;;
30307;SDS011;17114;52.314;8.910;2023-07-20T14:49:07;3.15;;;0.80;;
30307;SDS011;17114;52.314;8.910;2023-07-20T14:51:34;3.22;;;0.93;;
30307;SDS011;17114;52.314;8.910;2023-07-20T14:54:04;1.35;;;0.90;;
30307;SDS011;17114;52.314;8.910;2023-07-20T14:56:32;4.00;;;1.38;;
30307;SDS011;17114;52.314;8.910;2023-07-20T14:58:59;2.88;;;1.30;;
30307;SDS011;17114;52.314;8.910;2023-07-20T15:01:26;3.63;;;1.70;;
30307;SDS011;17114;52.314;8.910;2023-07-20T15:03:53;2.75;;;1.25;;
30307;SDS011;17114;52.314;8.910;2023-07-20T15:06:24;1.83;;;1.05;;
30307;SDS011;17114;52.314;8.910;2023-07-20T15:08:52;2.85;;;1.30;;
30307;SDS011;17114;52.314;8.910;2023-07-20T15:11:19;1.90;;;0.90;;
30307;SDS011;17114;52.314;8.910;2023-07-20T15:13:46;1.58;;;1.10;;
30307;SDS011;17114;52.314;8.910;2023-07-20T15:16:13;2.30;;;1.30;;